createdAt,value
2022-09-27T00:01:10.604Z,94973.97
2022-09-27T00:03:38.104Z,94973.59
2022-09-27T00:06:10.629Z,94955.97
2022-09-27T00:08:38.050Z,94963.16
2022-09-27T00:11:09.956Z,94955.97
2022-09-27T00:13:36.746Z,94957.38
2022-09-27T00:16:07.597Z,94948.78
2022-09-27T00:18:35.088Z,94940.53
2022-09-27T00:22:09.676Z,94938.28
2022-09-27T00:24:36.525Z,94941.03
2022-09-27T00:27:03.374Z,94933.75
2022-09-27T00:29:30.457Z,94933.16
2022-09-27T00:31:57.279Z,94918.19
2022-09-27T00:34:26.054Z,94919.69
2022-09-27T00:36:53.410Z,94925.06
2022-09-27T00:39:20.278Z,94925.97
2022-09-27T00:41:47.649Z,94921.81
2022-09-27T00:44:29.399Z,94934.00
2022-09-27T00:47:23.353Z,94911.50
2022-09-27T00:50:25.321Z,94914.69
2022-09-27T00:52:58.086Z,94916.00
2022-09-27T00:55:36.994Z,94913.88
2022-09-27T00:58:06.162Z,94914.13
2022-09-27T01:00:33.413Z,94911.22
2022-09-27T01:03:01.305Z,94916.53
2022-09-27T01:05:29.824Z,94908.38
2022-09-27T01:07:56.783Z,94912.09
2022-09-27T01:10:25.457Z,94906.63
2022-09-27T01:13:13.447Z,94901.97
2022-09-27T01:16:01.989Z,94913.53
2022-09-27T01:19:01.937Z,94909.38
2022-09-27T01:21:41.237Z,94896.38
2022-09-27T01:24:20.100Z,94895.03
2022-09-27T01:27:22.908Z,94894.13
2022-09-27T01:30:22.356Z,94892.75
2022-09-27T01:32:52.655Z,94886.34
2022-09-27T01:35:37.096Z,94876.00
2022-09-27T01:38:19.652Z,94880.78
2022-09-27T01:41:07.380Z,94868.63
2022-09-27T01:44:13.461Z,94874.94
2022-09-27T01:46:45.405Z,94859.91
2022-09-27T01:49:20.370Z,94860.13
2022-09-27T01:51:59.002Z,94860.16
2022-09-27T01:54:45.038Z,94862.28
2022-09-27T01:57:18.631Z,94847.22
2022-09-27T01:59:58.301Z,94859.03
2022-09-27T02:02:28.758Z,94860.06
2022-09-27T02:05:03.116Z,94864.84
2022-09-27T02:07:39.413Z,94866.94
2022-09-27T02:10:14.665Z,94870.31
2022-09-27T02:13:08.408Z,94864.75
2022-09-27T02:16:22.151Z,94853.41
2022-09-27T02:19:06.568Z,94865.84
2022-09-27T02:22:22.324Z,94862.31
2022-09-27T02:24:59.251Z,94857.38
2022-09-27T02:27:32.692Z,94860.47
2022-09-27T02:30:08.618Z,94867.34
2022-09-27T02:32:35.756Z,94851.53
2022-09-27T02:35:29.612Z,94858.41
2022-09-27T02:37:57.702Z,94842.72
2022-09-27T02:40:30.737Z,94844.69
2022-09-27T02:42:58.057Z,94834.97
2022-09-27T02:45:39.520Z,94827.63
2022-09-27T02:48:47.404Z,94827.22
2022-09-27T02:51:46.817Z,94813.91
2022-09-27T02:54:33.979Z,94805.28
2022-09-27T02:57:37.940Z,94811.34
2022-09-27T03:00:18.068Z,94813.25
2022-09-27T03:03:22.379Z,94810.16
2022-09-27T03:06:05.675Z,94814.31
2022-09-27T03:08:32.880Z,94819.53
2022-09-27T03:10:59.753Z,94813.09
2022-09-27T03:13:27.176Z,94811.03
2022-09-27T03:15:57.049Z,94816.13
2022-09-27T03:18:26.597Z,94806.41
2022-09-27T03:20:54.138Z,94811.16
2022-09-27T03:23:21.482Z,94809.56
2022-09-27T03:25:48.506Z,94811.28
2022-09-27T03:28:15.780Z,94806.69
2022-09-27T03:30:42.992Z,94796.53
2022-09-27T03:33:09.843Z,94809.00
2022-09-27T03:35:37.249Z,94808.16
2022-09-27T03:38:04.883Z,94806.03
2022-09-27T03:40:31.807Z,94794.50
2022-09-27T03:42:58.757Z,94793.72
2022-09-27T03:45:25.695Z,94798.28
2022-09-27T03:47:52.507Z,94792.63
2022-09-27T03:50:19.802Z,94787.41
2022-09-27T03:52:46.977Z,94773.84
2022-09-27T03:55:14.357Z,94775.56
2022-09-27T03:57:46.602Z,94780.81
2022-09-27T04:00:14.578Z,94776.28
2022-09-27T04:02:42.523Z,94767.91
2022-09-27T04:05:09.889Z,94762.47
2022-09-27T04:07:37.754Z,94766.00
2022-09-27T04:10:05.417Z,94764.09
2022-09-27T04:12:33.068Z,94768.25
2022-09-27T04:15:00.430Z,94754.75
2022-09-27T04:17:27.566Z,94753.66
2022-09-27T04:19:54.442Z,94760.28
2022-09-27T04:22:21.248Z,94754.59
2022-09-27T04:24:48.079Z,94755.34
2022-09-27T04:27:15.933Z,94751.66
2022-09-27T04:29:45.609Z,94764.47
2022-09-27T04:32:13.452Z,94763.03
2022-09-27T04:34:59.252Z,94758.03
2022-09-27T04:37:27.005Z,94760.03
2022-09-27T04:39:53.844Z,94760.44
2022-09-27T04:42:20.684Z,94767.84
2022-09-27T04:44:47.948Z,94766.56
2022-09-27T04:47:14.888Z,94766.09
2022-09-27T04:49:41.744Z,94765.50
2022-09-27T04:52:08.726Z,94771.44
2022-09-27T04:54:35.591Z,94767.59
2022-09-27T04:57:02.441Z,94765.50
2022-09-27T04:59:29.406Z,94762.63
2022-09-27T05:01:59.508Z,94771.09
2022-09-27T05:04:27.131Z,94768.69
2022-09-27T05:06:57.156Z,94783.22
2022-09-27T05:09:24.347Z,94779.31
2022-09-27T05:11:51.172Z,94790.84
2022-09-27T05:14:18.230Z,94790.38
2022-09-27T05:16:45.161Z,94789.38
2022-09-27T05:19:12.000Z,94788.06
2022-09-27T05:21:38.851Z,94781.34
2022-09-27T05:24:05.720Z,94783.19
2022-09-27T05:26:32.520Z,94791.06
2022-09-27T05:28:59.712Z,94788.91
2022-09-27T05:31:26.649Z,94800.94
2022-09-27T05:33:54.001Z,94793.28
2022-09-27T05:36:20.900Z,94804.47
2022-09-27T05:38:49.440Z,94799.31
2022-09-27T05:41:17.171Z,94790.47
2022-09-27T05:43:44.797Z,94795.41
2022-09-27T05:46:12.026Z,94802.38
2022-09-27T05:48:38.892Z,94814.28
2022-09-27T05:51:06.386Z,94808.19
2022-09-27T05:53:33.229Z,94811.06
2022-09-27T05:56:04.593Z,94822.28
2022-09-27T05:58:31.508Z,94808.91
2022-09-27T06:00:58.408Z,94818.50
2022-09-27T06:03:25.253Z,94811.13
2022-09-27T06:05:52.118Z,94814.69
2022-09-27T06:08:22.076Z,94822.50
2022-09-27T06:10:48.880Z,94831.41
2022-09-27T06:13:17.021Z,94841.78
2022-09-27T06:15:47.182Z,94846.34
2022-09-27T06:18:17.997Z,94854.19
2022-09-27T06:20:45.053Z,94854.06
2022-09-27T06:23:22.458Z,94852.56
2022-09-27T06:25:51.288Z,94855.22
2022-09-27T06:28:19.253Z,94858.69
2022-09-27T06:30:50.759Z,94857.63
2022-09-27T06:33:20.509Z,94860.44
2022-09-27T06:35:49.184Z,94855.16
2022-09-27T06:38:18.230Z,94865.34
2022-09-27T06:40:46.079Z,94862.31
2022-09-27T06:43:20.844Z,94875.59
2022-09-27T06:45:48.191Z,94882.56
2022-09-27T06:48:17.006Z,94885.56
2022-09-27T06:50:45.910Z,94887.53
2022-09-27T06:53:15.920Z,94899.69
2022-09-27T06:55:43.106Z,94899.22
2022-09-27T06:58:30.038Z,94895.25
2022-09-27T07:00:58.601Z,94896.50
2022-09-27T07:03:38.911Z,94895.56
2022-09-27T07:06:24.904Z,94898.91
2022-09-27T07:08:53.560Z,94893.03
2022-09-27T07:11:23.337Z,94895.72
2022-09-27T07:13:51.448Z,94913.47
2022-09-27T07:16:19.036Z,94925.13
2022-09-27T07:18:49.661Z,94918.69
2022-09-27T07:21:16.482Z,94922.50
2022-09-27T07:23:43.375Z,94927.38
2022-09-27T07:26:11.168Z,94929.88
2022-09-27T07:28:41.517Z,94932.13
2022-09-27T07:31:09.286Z,94930.56
2022-09-27T07:33:38.904Z,94941.59
2022-09-27T07:36:11.393Z,94942.78
2022-09-27T07:38:38.370Z,94936.50
2022-09-27T07:41:14.741Z,94932.28
2022-09-27T07:43:45.156Z,94938.59
2022-09-27T07:46:13.455Z,94942.63
2022-09-27T07:48:41.120Z,94935.97
2022-09-27T07:51:10.673Z,94933.06
2022-09-27T07:53:37.549Z,94933.31
2022-09-27T07:56:04.504Z,94943.81
2022-09-27T07:58:32.273Z,94935.88
2022-09-27T08:01:00.944Z,94942.06
2022-09-27T08:03:28.422Z,94945.53
2022-09-27T08:05:55.326Z,94948.19
2022-09-27T08:08:22.146Z,94954.50
2022-09-27T08:10:48.931Z,94957.63
2022-09-27T08:13:20.334Z,94952.50
2022-09-27T08:15:48.548Z,94964.44
2022-09-27T08:18:15.442Z,94964.53
2022-09-27T08:20:42.305Z,94967.16
2022-09-27T08:23:09.419Z,94971.94
2022-09-27T08:25:36.338Z,94967.38
2022-09-27T08:28:04.841Z,94980.34
2022-09-27T08:30:32.482Z,94979.38
2022-09-27T08:33:01.154Z,94985.50
2022-09-27T08:35:28.852Z,94991.88
2022-09-27T08:37:59.622Z,94996.69
2022-09-27T08:40:49.049Z,94997.66
2022-09-27T08:43:39.628Z,95003.31
2022-09-27T08:46:28.131Z,94995.78
2022-09-27T08:49:06.864Z,95006.13
2022-09-27T08:51:35.350Z,95004.63
2022-09-27T08:54:08.883Z,95004.69
2022-09-27T08:56:37.124Z,95002.22
2022-09-27T08:59:21.956Z,95003.16
2022-09-27T09:01:50.766Z,95001.19
2022-09-27T09:04:31.630Z,95015.97
2022-09-27T09:07:51.616Z,95020.22
2022-09-27T09:11:11.821Z,95019.97
2022-09-27T09:14:24.973Z,95006.06
2022-09-27T09:17:16.821Z,95006.44
2022-09-27T09:19:54.628Z,95023.34
2022-09-27T09:22:48.729Z,95006.78
2022-09-27T09:25:53.546Z,95012.28
2022-09-27T09:29:08.899Z,95004.94
2022-09-27T09:31:44.720Z,95006.69
2022-09-27T09:34:20.075Z,95004.06
2022-09-27T09:36:59.859Z,95004.66
2022-09-27T09:39:34.878Z,95007.06
2022-09-27T09:42:53.018Z,94994.38
2022-09-27T09:45:19.829Z,95008.22
2022-09-27T09:48:23.144Z,95009.69
2022-09-27T09:50:54.849Z,95020.84
2022-09-27T09:53:35.193Z,95024.56
2022-09-27T09:56:22.157Z,95016.63
2022-09-27T09:59:04.786Z,95029.81
2022-09-27T10:01:39.634Z,95030.88
2022-09-27T10:04:06.601Z,95031.06
2022-09-27T10:06:33.521Z,95029.56
2022-09-27T10:09:01.823Z,95043.97
2022-09-27T10:11:48.018Z,95025.44
2022-09-27T10:14:18.961Z,95038.25
2022-09-27T10:16:58.094Z,95033.53
2022-09-27T10:19:34.000Z,95039.25
2022-09-27T10:22:40.093Z,95042.22
2022-09-27T10:25:09.323Z,95034.97
2022-09-27T10:27:56.304Z,95037.94
2022-09-27T10:30:24.778Z,95044.38
2022-09-27T10:32:56.939Z,95043.97
2022-09-27T10:35:29.995Z,95053.66
2022-09-27T10:38:16.930Z,95053.13
2022-09-27T10:40:44.043Z,95047.91
2022-09-27T10:43:32.303Z,95058.47
2022-09-27T10:46:22.058Z,95061.63
2022-09-27T10:48:49.157Z,95054.28
2022-09-27T10:51:32.350Z,95040.88
2022-09-27T10:54:01.021Z,95050.47
2022-09-27T10:56:33.360Z,95057.16
2022-09-27T10:59:00.816Z,95051.81
2022-09-27T11:01:42.838Z,95057.41
2022-09-27T11:04:28.202Z,95061.59
2022-09-27T11:07:16.605Z,95065.94
2022-09-27T11:09:56.473Z,95067.97
2022-09-27T11:12:25.159Z,95064.28
2022-09-27T11:15:24.346Z,95040.44
2022-09-27T11:18:14.439Z,95053.09
2022-09-27T11:21:32.136Z,95050.69
2022-09-27T11:24:23.597Z,95039.56
2022-09-27T11:27:25.909Z,95045.75
2022-09-27T11:30:22.961Z,95034.38
2022-09-27T11:34:05.588Z,95033.19
2022-09-27T11:36:53.766Z,95036.22
2022-09-27T11:39:40.066Z,95045.66
2022-09-27T11:42:46.770Z,95043.69
2022-09-27T11:48:58.452Z,95037.19
2022-09-27T11:51:51.640Z,95030.28
2022-09-27T11:55:05.507Z,95029.22
2022-09-27T11:57:41.820Z,95034.56
2022-09-27T12:00:25.127Z,95033.25
2022-09-27T12:03:56.860Z,95031.16
2022-09-27T12:06:54.504Z,95036.25
2022-09-27T12:09:29.196Z,95030.91
2022-09-27T12:12:10.241Z,95044.00
2022-09-27T12:14:56.338Z,95051.63
2022-09-27T12:17:31.146Z,95033.69
2022-09-27T12:20:07.084Z,95051.66
2022-09-27T12:22:58.536Z,95055.97
2022-09-27T12:25:32.270Z,95068.25
2022-09-27T12:28:03.969Z,95053.03
2022-09-27T12:30:34.610Z,95054.47
2022-09-27T12:33:21.681Z,95053.78
2022-09-27T12:35:54.257Z,95054.38
2022-09-27T12:38:42.776Z,95048.97
2022-09-27T12:41:15.354Z,95039.19
2022-09-27T12:43:48.907Z,95041.88
2022-09-27T12:46:42.057Z,95031.25
2022-09-27T12:49:48.076Z,95035.44
2022-09-27T12:52:25.425Z,95036.88
2022-09-27T12:55:18.367Z,95043.06
2022-09-27T12:58:22.767Z,95028.13
2022-09-27T13:01:10.148Z,95033.66
2022-09-27T13:04:04.645Z,95037.59
2022-09-27T13:06:40.323Z,95031.41
2022-09-27T13:09:22.064Z,95040.91
2022-09-27T13:12:17.741Z,95038.66
2022-09-27T13:15:06.933Z,95042.66
2022-09-27T13:17:40.392Z,95024.97
2022-09-27T13:20:37.302Z,95025.84
2022-09-27T13:23:24.256Z,95014.56
2022-09-27T13:25:56.201Z,95016.06
2022-09-27T13:28:31.991Z,95019.09
2022-09-27T13:31:15.949Z,95023.78
2022-09-27T13:33:53.567Z,95016.63
2022-09-27T13:36:33.756Z,95014.22
2022-09-27T13:39:11.310Z,95012.50
2022-09-27T13:42:15.353Z,95000.03
2022-09-27T13:45:03.983Z,94993.59
2022-09-27T13:47:40.234Z,94994.50
2022-09-27T13:50:37.821Z,95000.78
2022-09-27T13:53:22.664Z,95002.84
2022-09-27T13:55:52.785Z,94994.63
2022-09-27T13:58:19.481Z,94999.38
2022-09-27T14:00:51.462Z,94997.78
2022-09-27T14:03:54.180Z,94993.22
2022-09-27T14:06:32.183Z,95011.47
2022-09-27T14:09:04.673Z,94986.69
2022-09-27T14:11:38.214Z,95003.84
2022-09-27T14:14:06.501Z,94997.59
2022-09-27T14:16:36.519Z,94998.16
2022-09-27T14:19:04.057Z,94996.94
2022-09-27T14:21:38.320Z,95006.47
2022-09-27T14:24:23.983Z,95013.97
2022-09-27T14:27:03.517Z,95020.84
2022-09-27T14:29:36.546Z,95000.69
2022-09-27T14:32:28.977Z,95006.56
2022-09-27T14:35:27.290Z,95018.66
2022-09-27T14:37:54.657Z,95014.16
2022-09-27T14:40:22.974Z,95026.56
2022-09-27T14:42:59.037Z,95003.69
2022-09-27T14:45:40.131Z,95018.44
2022-09-27T14:48:20.736Z,95016.31
2022-09-27T14:51:19.231Z,95025.06
2022-09-27T14:54:01.012Z,95008.34
2022-09-27T14:56:32.305Z,94997.69
2022-09-27T14:59:14.541Z,95021.69
2022-09-27T15:01:50.485Z,95008.03
2022-09-27T15:04:19.326Z,95013.22
2022-09-27T15:06:47.660Z,95017.06
2022-09-27T15:09:17.073Z,95023.75
2022-09-27T15:11:49.421Z,95017.97
2022-09-27T15:14:21.853Z,95023.47
2022-09-27T15:16:52.376Z,95025.31
2022-09-27T15:19:27.797Z,95020.34
2022-09-27T15:21:55.618Z,95011.69
2022-09-27T15:24:46.678Z,95027.28
2022-09-27T15:27:18.014Z,95021.19
2022-09-27T15:29:53.946Z,95031.19
2022-09-27T15:32:24.223Z,95033.81
2022-09-27T15:34:51.146Z,95029.19
2022-09-27T15:37:35.347Z,95040.75
2022-09-27T15:40:20.408Z,95037.69
2022-09-27T15:43:02.074Z,95040.56
2022-09-27T15:45:35.221Z,95032.25
2022-09-27T15:48:32.078Z,95039.06
2022-09-27T15:50:59.441Z,95042.34
2022-09-27T15:53:35.309Z,95045.50
2022-09-27T15:56:06.418Z,95034.00
2022-09-27T15:58:34.486Z,95055.72
2022-09-27T16:01:05.577Z,95043.22
2022-09-27T16:03:33.180Z,95054.75
2022-09-27T16:06:02.617Z,95045.88
2022-09-27T16:08:29.665Z,95065.88
2022-09-27T16:10:59.003Z,95070.19
2022-09-27T16:13:32.469Z,95073.06
2022-09-27T16:16:00.389Z,95084.31
2022-09-27T16:18:30.588Z,95078.41
2022-09-27T16:20:59.115Z,95076.91
2022-09-27T16:23:26.250Z,95083.50
2022-09-27T16:25:53.813Z,95091.19
2022-09-27T16:28:20.825Z,95087.66
2022-09-27T16:30:48.108Z,95090.38
2022-09-27T16:33:15.314Z,95082.06
2022-09-27T16:35:42.163Z,95097.09
2022-09-27T16:38:09.232Z,95095.19
2022-09-27T16:40:37.377Z,95102.88
2022-09-27T16:43:07.181Z,95106.84
2022-09-27T16:45:36.322Z,95101.91
2022-09-27T16:48:03.546Z,95107.84
2022-09-27T16:50:48.694Z,95115.19
2022-09-27T16:53:15.961Z,95115.16
2022-09-27T16:55:42.885Z,95114.97
2022-09-27T16:58:09.767Z,95106.31
2022-09-27T17:00:37.263Z,95105.91
2022-09-27T17:03:04.441Z,95115.00
2022-09-27T17:05:31.728Z,95110.41
2022-09-27T17:07:58.811Z,95108.69
2022-09-27T17:10:25.905Z,95104.94
2022-09-27T17:12:52.796Z,95098.44
2022-09-27T17:15:20.339Z,95091.03
2022-09-27T17:17:50.460Z,95095.81
2022-09-27T17:20:17.833Z,95090.53
2022-09-27T17:22:44.664Z,95087.00
2022-09-27T17:25:11.630Z,95090.16
2022-09-27T17:27:38.454Z,95087.94
2022-09-27T17:30:06.873Z,95082.44
2022-09-27T17:32:34.782Z,95091.09
2022-09-27T17:35:02.544Z,95087.84
2022-09-27T17:37:29.616Z,95092.78
2022-09-27T17:39:57.451Z,95105.47
2022-09-27T17:42:25.347Z,95095.72
2022-09-27T17:44:52.275Z,95104.25
2022-09-27T17:47:37.388Z,95100.63
2022-09-27T17:50:22.842Z,95095.59
2022-09-27T17:52:49.745Z,95098.13
2022-09-27T17:55:16.874Z,95090.06
2022-09-27T17:57:43.664Z,95099.53
2022-09-27T18:00:11.040Z,95102.88
2022-09-27T18:02:38.023Z,95105.63
2022-09-27T18:05:05.592Z,95097.63
2022-09-27T18:07:33.345Z,95108.34
2022-09-27T18:10:00.371Z,95110.06
2022-09-27T18:12:31.881Z,95108.91
2022-09-27T18:14:59.018Z,95106.28
2022-09-27T18:17:27.701Z,95104.00
2022-09-27T18:19:56.946Z,95110.47
2022-09-27T18:22:26.397Z,95113.69
2022-09-27T18:24:53.198Z,95118.03
2022-09-27T18:27:20.077Z,95118.94
2022-09-27T18:29:47.170Z,95119.16
2022-09-27T18:32:14.045Z,95121.38
2022-09-27T18:34:40.939Z,95122.34
2022-09-27T18:37:07.783Z,95126.38
2022-09-27T18:39:34.612Z,95128.16
2022-09-27T18:42:01.556Z,95136.53
2022-09-27T18:44:28.376Z,95142.59
2022-09-27T18:46:55.293Z,95138.56
2022-09-27T18:49:26.192Z,95151.53
2022-09-27T18:51:54.623Z,95156.91
2022-09-27T18:54:22.647Z,95159.91
2022-09-27T18:56:52.119Z,95148.47
2022-09-27T18:59:21.546Z,95159.91
2022-09-27T19:01:48.514Z,95150.25
2022-09-27T19:04:26.750Z,95153.72
2022-09-27T19:06:55.432Z,95159.31
2022-09-27T19:09:22.786Z,95164.44
2022-09-27T19:11:49.713Z,95159.66
2022-09-27T19:14:20.019Z,95158.97
2022-09-27T19:16:48.024Z,95167.19
2022-09-27T19:19:16.615Z,95163.53
2022-09-27T19:21:43.861Z,95150.00
2022-09-27T19:24:11.694Z,95157.06
2022-09-27T19:26:39.899Z,95165.09
2022-09-27T19:29:06.983Z,95159.25
2022-09-27T19:31:35.550Z,95168.75
2022-09-27T19:34:02.466Z,95165.09
2022-09-27T19:36:29.405Z,95159.06
2022-09-27T19:38:58.753Z,95169.47
2022-09-27T19:41:27.178Z,95172.19
2022-09-27T19:43:56.475Z,95163.72
2022-09-27T19:46:25.420Z,95169.31
2022-09-27T19:48:54.021Z,95172.31
2022-09-27T19:51:26.861Z,95173.88
2022-09-27T19:53:54.574Z,95171.78
2022-09-27T19:56:22.211Z,95163.56
2022-09-27T19:58:49.370Z,95167.25
2022-09-27T20:01:20.432Z,95171.97
2022-09-27T20:03:49.888Z,95167.16
2022-09-27T20:06:19.608Z,95167.31
2022-09-27T20:08:50.087Z,95171.03
2022-09-27T20:11:23.253Z,95161.88
2022-09-27T20:13:53.049Z,95164.97
2022-09-27T20:16:23.640Z,95163.06
2022-09-27T20:18:59.589Z,95159.81
2022-09-27T20:21:32.450Z,95158.00
2022-09-27T20:24:01.985Z,95144.25
2022-09-27T20:26:30.921Z,95149.53
2022-09-27T20:29:00.553Z,95146.25
2022-09-27T20:31:33.564Z,95149.69
2022-09-27T20:34:01.138Z,95145.72
2022-09-27T20:36:31.700Z,95153.94
2022-09-27T20:39:03.879Z,95153.28
2022-09-27T20:41:34.102Z,95149.44
2022-09-27T20:44:04.457Z,95143.47
2022-09-27T20:46:32.267Z,95151.22
2022-09-27T20:49:12.818Z,95153.19
2022-09-27T20:51:42.794Z,95136.81
2022-09-27T20:54:12.590Z,95141.28
2022-09-27T20:56:48.223Z,95141.06
2022-09-27T20:59:23.346Z,95140.09
2022-09-27T21:01:51.903Z,95144.84
2022-09-27T21:04:22.296Z,95135.31
2022-09-27T21:06:49.099Z,95141.06
2022-09-27T21:09:19.619Z,95136.81
2022-09-27T21:11:48.548Z,95148.16
2022-09-27T21:14:15.600Z,95153.19
2022-09-27T21:16:42.480Z,95193.25
2022-09-27T21:19:09.984Z,95198.88
2022-09-27T21:21:36.979Z,95191.69
2022-09-27T21:24:03.953Z,95171.09
2022-09-27T21:26:32.948Z,95173.84
2022-09-27T21:29:03.970Z,95160.72
2022-09-27T21:31:32.385Z,95156.34
2022-09-27T21:34:01.824Z,95160.59
2022-09-27T21:36:32.054Z,95163.66
2022-09-27T21:38:59.443Z,95162.41
2022-09-27T21:41:27.065Z,95166.28
2022-09-27T21:43:54.537Z,95168.69
2022-09-27T21:46:25.078Z,95164.00
2022-09-27T21:48:57.811Z,95171.63
2022-09-27T21:51:28.228Z,95174.16
2022-09-27T21:53:58.360Z,95167.09
2022-09-27T21:56:32.589Z,95168.19
2022-09-27T21:58:59.551Z,95171.28
2022-09-27T22:01:30.369Z,95168.41
2022-09-27T22:03:58.794Z,95170.56
2022-09-27T22:06:31.450Z,95163.25
2022-09-27T22:09:00.334Z,95166.47
2022-09-27T22:11:44.201Z,95166.94
2022-09-27T22:14:12.664Z,95174.47
2022-09-27T22:16:39.568Z,95165.25
2022-09-27T22:19:06.923Z,95160.09
2022-09-27T22:21:38.904Z,95152.47
2022-09-27T22:24:13.271Z,95160.56
2022-09-27T22:26:42.316Z,95161.00
2022-09-27T22:29:09.238Z,95167.66
2022-09-27T22:31:37.184Z,95150.97
2022-09-27T22:34:07.028Z,95141.59
2022-09-27T22:36:34.710Z,95143.63
2022-09-27T22:39:01.897Z,95142.03
2022-09-27T22:41:30.331Z,95137.84
2022-09-27T22:43:57.890Z,95136.13
2022-09-27T22:46:25.281Z,95125.50
2022-09-27T22:48:52.353Z,95127.91
2022-09-27T22:51:19.399Z,95114.06
2022-09-27T22:53:46.411Z,95116.72
2022-09-27T22:56:17.138Z,95113.16
2022-09-27T22:58:44.788Z,95116.22
2022-09-27T23:01:21.189Z,95119.66
2022-09-27T23:03:50.384Z,95113.84
2022-09-27T23:06:19.550Z,95113.06
2022-09-27T23:08:47.330Z,95116.22
2022-09-27T23:11:19.860Z,95114.41
2022-09-27T23:13:48.357Z,95109.47
2022-09-27T23:16:24.243Z,95122.41
2022-09-27T23:18:56.506Z,95126.06
2022-09-27T23:21:25.510Z,95113.97
2022-09-27T23:23:54.981Z,95108.81
2022-09-27T23:26:25.945Z,95105.50
2022-09-27T23:29:01.201Z,95096.22
2022-09-27T23:31:31.041Z,95110.53
2022-09-27T23:33:59.256Z,95103.09
2022-09-27T23:36:27.582Z,95100.56
2022-09-27T23:38:58.451Z,95107.44
2022-09-27T23:41:25.792Z,95101.38
2022-09-27T23:43:53.360Z,95096.00
2022-09-27T23:46:21.150Z,95100.34
2022-09-27T23:48:48.512Z,95097.25
2022-09-27T23:51:15.332Z,95097.38
2022-09-27T23:53:42.144Z,95086.75
2022-09-27T23:56:16.320Z,95073.50
2022-09-27T23:58:45.693Z,95081.25
